Sunderland, Vermont
Current Conditions -  °F | °C
As of 5:54 PM on Sunday 21 Dec 2014 (Local Time) from KDDH Reporting Station
Overcast Overcast  
Wind Chill: -2°   Ceiling: 900
Heat Index: -2°   Visibility: 7mi
Dew Point: -4°   Wind: 0mph
Humidity: 88%   Direction: NA
Pressure: 30.31"   Gusts: NA
Location:  43.0661°N, 73.1407°W
Report Text: KDDH 212254Z AUTO 00000KT 7SM OVC009 M02/M04 A3031 RMK AO2 SLP273 T10221039
Loading
Personal Weather Stations






























Interactive Weather Map New forecast layout! Learn more

10-Day Weather Forecast

Advertisements
Track Severe Weather on mobile